Andrews, Texas
Current Conditions -  °F | °C
As of 8:55 AM on Wednesday 22 Oct 2014 (Local Time) from KE11 Reporting Station
Scattered Clouds Scattered Clouds  
Wind Chill: 16°   Ceiling: Unl
Heat Index: 16°   Visibility: 10mi
Dew Point: 15°   Wind: 7mph
Humidity: 91%   Direction: 150°SSE
Pressure: 30.13"   Gusts: NA
Location:  32.32°N, 102.54°W
Report Text: KE11 221355Z AUTO 15006KT 10SM SCT060 16/15 A3013 RMK AO2 T01630148
Loading
Personal Weather Stations






























Interactive Weather Map
Tropical Storm Tracking
New forecast layout! Learn more

10-Day Weather Forecast

Advertisements
Track Severe Weather on mobile